sensor_id;sensor_type;location;lat;lon;timestamp;pressure;altitude;pressure_sealevel;temperature;humidity
35918;BME280;22011;59.912;30.300;2024-01-30T00:00:47;102331.94;;;4.09;72.31
35918;BME280;22011;59.912;30.300;2024-01-30T00:03:15;102330.16;;;4.10;72.20
35918;BME280;22011;59.912;30.300;2024-01-30T00:05:44;102330.84;;;4.13;72.32
35918;BME280;22011;59.912;30.300;2024-01-30T00:08:12;102335.19;;;4.14;72.16
35918;BME280;22011;59.912;30.300;2024-01-30T00:10:39;102345.91;;;4.11;72.33
35918;BME280;22011;59.912;30.300;2024-01-30T00:13:07;102335.59;;;4.07;72.53
35918;BME280;22011;59.912;30.300;2024-01-30T00:15:34;102338.31;;;4.05;72.49
35918;BME280;22011;59.912;30.300;2024-01-30T00:18:02;102332.44;;;4.00;72.67
35918;BME280;22011;59.912;30.300;2024-01-30T00:20:30;102337.97;;;3.96;72.70
35918;BME280;22011;59.912;30.300;2024-01-30T00:22:59;102340.63;;;3.96;73.25
35918;BME280;22011;59.912;30.300;2024-01-30T00:25:27;102338.91;;;3.94;73.45
35918;BME280;22011;59.912;30.300;2024-01-30T00:27:55;102339.16;;;3.90;73.34
35918;BME280;22011;59.912;30.300;2024-01-30T00:30:23;102341.97;;;3.87;73.69
35918;BME280;22011;59.912;30.300;2024-01-30T00:32:50;102348.00;;;3.89;73.49
35918;BME280;22011;59.912;30.300;2024-01-30T00:35:18;102347.25;;;3.87;73.32
35918;BME280;22011;59.912;30.300;2024-01-30T00:37:46;102361.88;;;3.92;73.37
35918;BME280;22011;59.912;30.300;2024-01-30T00:40:15;102361.78;;;3.94;73.30
35918;BME280;22011;59.912;30.300;2024-01-30T00:42:43;102361.19;;;3.89;73.60
35918;BME280;22011;59.912;30.300;2024-01-30T00:45:12;102367.25;;;3.91;73.44
35918;BME280;22011;59.912;30.300;2024-01-30T00:47:40;102361.19;;;3.89;73.64
35918;BME280;22011;59.912;30.300;2024-01-30T00:50:08;102361.34;;;3.86;73.60
35918;BME280;22011;59.912;30.300;2024-01-30T00:52:36;102366.72;;;3.84;73.68
35918;BME280;22011;59.912;30.300;2024-01-30T00:55:05;102368.66;;;3.81;73.86
35918;BME280;22011;59.912;30.300;2024-01-30T00:57:34;102374.03;;;3.79;73.91
35918;BME280;22011;59.912;30.300;2024-01-30T01:00:03;102376.75;;;3.78;73.85
35918;BME280;22011;59.912;30.300;2024-01-30T01:02:32;102386.34;;;3.79;73.88
35918;BME280;22011;59.912;30.300;2024-01-30T01:05:00;102381.06;;;3.79;74.10
35918;BME280;22011;59.912;30.300;2024-01-30T01:07:27;102378.44;;;3.79;74.04
35918;BME280;22011;59.912;30.300;2024-01-30T01:09:55;102375.13;;;3.75;74.08
35918;BME280;22011;59.912;30.300;2024-01-30T01:12:22;102379.63;;;3.73;73.88
35918;BME280;22011;59.912;30.300;2024-01-30T01:14:51;102396.38;;;3.72;74.20
35918;BME280;22011;59.912;30.300;2024-01-30T01:17:19;102396.38;;;3.72;74.21
35918;BME280;22011;59.912;30.300;2024-01-30T01:19:47;102395.59;;;3.70;73.98
35918;BME280;22011;59.912;30.300;2024-01-30T01:22:16;102408.69;;;3.72;74.08
35918;BME280;22011;59.912;30.300;2024-01-30T01:24:44;102422.88;;;3.69;74.16
35918;BME280;22011;59.912;30.300;2024-01-30T01:27:12;102416.00;;;3.67;74.21
35918;BME280;22011;59.912;30.300;2024-01-30T01:29:39;102418.78;;;3.64;74.17
35918;BME280;22011;59.912;30.300;2024-01-30T01:32:08;102413.53;;;3.64;74.33
35918;BME280;22011;59.912;30.300;2024-01-30T01:34:36;102422.50;;;3.59;74.20
35918;BME280;22011;59.912;30.300;2024-01-30T01:37:03;102426.09;;;3.58;74.39
35918;BME280;22011;59.912;30.300;2024-01-30T01:39:31;102424.38;;;3.57;74.44
35918;BME280;22011;59.912;30.300;2024-01-30T01:41:58;102427.16;;;3.54;74.56
35918;BME280;22011;59.912;30.300;2024-01-30T01:44:26;102421.91;;;3.54;74.76
35918;BME280;22011;59.912;30.300;2024-01-30T01:46:55;102435.06;;;3.54;74.72
35918;BME280;22011;59.912;30.300;2024-01-30T01:49:27;102439.19;;;3.60;74.75
35918;BME280;22011;59.912;30.300;2024-01-30T01:51:55;102443.91;;;3.53;74.50
35918;BME280;22011;59.912;30.300;2024-01-30T01:54:25;102452.69;;;3.54;74.52
35918;BME280;22011;59.912;30.300;2024-01-30T01:56:54;102458.19;;;3.49;74.53
35918;BME280;22011;59.912;30.300;2024-01-30T01:59:23;102455.38;;;3.52;75.00
35918;BME280;22011;59.912;30.300;2024-01-30T02:01:51;102463.28;;;3.52;74.66
35918;BME280;22011;59.912;30.300;2024-01-30T02:04:20;102452.69;;;3.54;74.85
35918;BME280;22011;59.912;30.300;2024-01-30T02:06:49;102453.38;;;3.57;74.58
35918;BME280;22011;59.912;30.300;2024-01-30T02:09:17;102443.91;;;3.53;74.49
35918;BME280;22011;59.912;30.300;2024-01-30T02:11:45;102458.03;;;3.52;74.50
35918;BME280;22011;59.912;30.300;2024-01-30T02:14:12;102461.59;;;3.51;74.54
35918;BME280;22011;59.912;30.300;2024-01-30T02:16:40;102460.75;;;3.51;75.06
35918;BME280;22011;59.912;30.300;2024-01-30T02:19:07;102464.38;;;3.48;74.83
35918;BME280;22011;59.912;30.300;2024-01-30T02:21:36;102458.19;;;3.49;75.18
35918;BME280;22011;59.912;30.300;2024-01-30T02:24:05;102463.59;;;3.46;75.21
35918;BME280;22011;59.912;30.300;2024-01-30T02:26:33;102468.03;;;3.46;74.96
35918;BME280;22011;59.912;30.300;2024-01-30T02:29:01;102470.50;;;3.49;74.99
35918;BME280;22011;59.912;30.300;2024-01-30T02:31:28;102472.44;;;3.45;74.72
35918;BME280;22011;59.912;30.300;2024-01-30T02:33:56;102474.31;;;3.43;75.17
35918;BME280;22011;59.912;30.300;2024-01-30T02:36:24;102479.56;;;3.43;74.83
35918;BME280;22011;59.912;30.300;2024-01-30T02:38:53;102475.16;;;3.44;75.05
35918;BME280;22011;59.912;30.300;2024-01-30T02:41:20;102481.44;;;3.41;75.13
35918;BME280;22011;59.912;30.300;2024-01-30T02:43:48;102486.31;;;3.49;74.82
35918;BME280;22011;59.912;30.300;2024-01-30T02:46:15;102481.97;;;3.48;74.59
35918;BME280;22011;59.912;30.300;2024-01-30T02:48:43;102478.56;;;3.46;74.79
35918;BME280;22011;59.912;30.300;2024-01-30T02:51:10;102486.69;;;3.41;74.68
35918;BME280;22011;59.912;30.300;2024-01-30T02:53:38;102482.44;;;3.39;74.65
35918;BME280;22011;59.912;30.300;2024-01-30T02:56:07;102493.69;;;3.42;75.34
35918;BME280;22011;59.912;30.300;2024-01-30T02:58:36;102499.88;;;3.41;74.92
35918;BME280;22011;59.912;30.300;2024-01-30T03:01:04;102498.09;;;3.42;75.34
35918;BME280;22011;59.912;30.300;2024-01-30T03:03:31;102494.53;;;3.43;75.35
35918;BME280;22011;59.912;30.300;2024-01-30T03:06:00;102486.53;;;3.44;75.11
35918;BME280;22011;59.912;30.300;2024-01-30T03:08:28;102485.53;;;3.47;74.85
35918;BME280;22011;59.912;30.300;2024-01-30T03:10:55;102496.16;;;3.45;74.66
35918;BME280;22011;59.912;30.300;2024-01-30T03:13:24;102495.06;;;3.49;74.81
35918;BME280;22011;59.912;30.300;2024-01-30T03:15:52;102502.13;;;3.49;74.74
35918;BME280;22011;59.912;30.300;2024-01-30T03:18:20;102495.06;;;3.49;74.69
35918;BME280;22011;59.912;30.300;2024-01-30T03:20:47;102503.06;;;3.48;74.72
35918;BME280;22011;59.912;30.300;2024-01-30T03:23:15;102505.69;;;3.48;75.00
35918;BME280;22011;59.912;30.300;2024-01-30T03:25:43;102509.34;;;3.45;74.83
35918;BME280;22011;59.912;30.300;2024-01-30T03:28:10;102509.50;;;3.42;74.88
35918;BME280;22011;59.912;30.300;2024-01-30T03:30:39;102512.91;;;3.44;75.24
35918;BME280;22011;59.912;30.300;2024-01-30T03:33:07;102509.34;;;3.45;75.14
35918;BME280;22011;59.912;30.300;2024-01-30T03:35:34;102520.03;;;3.42;74.35
35918;BME280;22011;59.912;30.300;2024-01-30T03:38:02;102533.28;;;3.41;75.27
35918;BME280;22011;59.912;30.300;2024-01-30T03:40:30;102540.47;;;3.37;75.34
35918;BME280;22011;59.912;30.300;2024-01-30T03:42:58;102518.63;;;3.35;75.76
35918;BME280;22011;59.912;30.300;2024-01-30T03:45:25;102517.84;;;3.33;75.68
35918;BME280;22011;59.912;30.300;2024-01-30T03:47:54;102518.47;;;3.38;75.83
35918;BME280;22011;59.912;30.300;2024-01-30T03:50:22;102522.09;;;3.36;75.41
35918;BME280;22011;59.912;30.300;2024-01-30T03:52:49;102528.22;;;3.36;75.57
35918;BME280;22011;59.912;30.300;2024-01-30T03:55:17;102526.53;;;3.35;75.26
35918;BME280;22011;59.912;30.300;2024-01-30T03:57:45;102530.16;;;3.33;75.37
35918;BME280;22011;59.912;30.300;2024-01-30T04:00:14;102531.03;;;3.33;75.23
35918;BME280;22011;59.912;30.300;2024-01-30T04:02:41;102533.72;;;3.32;75.20
35918;BME280;22011;59.912;30.300;2024-01-30T04:05:10;102533.56;;;3.35;75.28
35918;BME280;22011;59.912;30.300;2024-01-30T04:07:38;102528.53;;;3.30;75.53
35918;BME280;22011;59.912;30.300;2024-01-30T04:10:07;102536.59;;;3.27;75.64
35918;BME280;22011;59.912;30.300;2024-01-30T04:12:34;102526.34;;;3.21;75.56
35918;BME280;22011;59.912;30.300;2024-01-30T04:15:02;102524.63;;;3.20;75.44
35918;BME280;22011;59.912;30.300;2024-01-30T04:17:30;102520.16;;;3.22;75.82
35918;BME280;22011;59.912;30.300;2024-01-30T04:19:58;102527.19;;;3.21;75.63
35918;BME280;22011;59.912;30.300;2024-01-30T04:22:27;102527.91;;;3.25;75.49
35918;BME280;22011;59.912;30.300;2024-01-30T04:24:55;102521.06;;;3.21;75.47
35918;BME280;22011;59.912;30.300;2024-01-30T04:27:22;102517.53;;;3.22;75.67
35918;BME280;22011;59.912;30.300;2024-01-30T04:29:50;102522.78;;;3.22;75.69
35918;BME280;22011;59.912;30.300;2024-01-30T04:32:18;102516.75;;;3.20;75.80
35918;BME280;22011;59.912;30.300;2024-01-30T04:34:45;102519.38;;;3.20;75.52
35918;BME280;22011;59.912;30.300;2024-01-30T04:37:13;102515.09;;;3.17;75.54
35918;BME280;22011;59.912;30.300;2024-01-30T04:39:42;102516.66;;;3.21;75.99
35918;BME280;22011;59.912;30.300;2024-01-30T04:42:09;102515.81;;;3.21;75.81
35918;BME280;22011;59.912;30.300;2024-01-30T04:44:37;102506.97;;;3.22;75.78
35918;BME280;22011;59.912;30.300;2024-01-30T04:47:04;102512.19;;;3.23;75.51
35918;BME280;22011;59.912;30.300;2024-01-30T04:49:35;102515.66;;;3.24;75.79
35918;BME280;22011;59.912;30.300;2024-01-30T04:52:01;102516.44;;;3.26;75.51
35918;BME280;22011;59.912;30.300;2024-01-30T04:54:29;102520.72;;;3.28;75.29
35918;BME280;22011;59.912;30.300;2024-01-30T04:56:58;102518.63;;;3.35;75.20
35918;BME280;22011;59.912;30.300;2024-01-30T04:59:25;102519.78;;;3.29;74.89
35918;BME280;22011;59.912;30.300;2024-01-30T05:01:53;102518.78;;;3.32;74.84
35918;BME280;22011;59.912;30.300;2024-01-30T05:04:21;102513.56;;;3.31;74.79
35918;BME280;22011;59.912;30.300;2024-01-30T05:06:49;102534.72;;;3.29;74.59
35918;BME280;22011;59.912;30.300;2024-01-30T05:09:16;102540.00;;;3.29;74.80
35918;BME280;22011;59.912;30.300;2024-01-30T05:11:45;102544.50;;;3.27;74.74
35918;BME280;22011;59.912;30.300;2024-01-30T05:14:13;102536.22;;;3.35;74.89
35918;BME280;22011;59.912;30.300;2024-01-30T05:16:42;102538.06;;;3.33;74.78
35918;BME280;22011;59.912;30.300;2024-01-30T05:19:12;102539.19;;;3.63;75.70
35918;BME280;22011;59.912;30.300;2024-01-30T05:21:40;102540.47;;;3.37;74.58
35918;BME280;22011;59.912;30.300;2024-01-30T05:24:08;102543.41;;;3.31;74.76
35918;BME280;22011;59.912;30.300;2024-01-30T05:26:36;102541.63;;;3.32;74.63
35918;BME280;22011;59.912;30.300;2024-01-30T05:29:04;102558.06;;;3.37;74.66
35918;BME280;22011;59.912;30.300;2024-01-30T05:31:34;102563.41;;;3.35;74.67
35918;BME280;22011;59.912;30.300;2024-01-30T05:34:01;102566.03;;;3.35;74.48
35918;BME280;22011;59.912;30.300;2024-01-30T05:36:29;102568.59;;;3.37;75.20
35918;BME280;22011;59.912;30.300;2024-01-30T05:38:56;102567.75;;;3.36;75.00
35918;BME280;22011;59.912;30.300;2024-01-30T05:41:24;102574.88;;;3.34;74.90
35918;BME280;22011;59.912;30.300;2024-01-30T05:43:54;102585.03;;;3.42;75.41
35918;BME280;22011;59.912;30.300;2024-01-30T05:46:22;102584.84;;;3.64;76.24
35918;BME280;22011;59.912;30.300;2024-01-30T05:48:51;102588.53;;;3.42;74.82
35918;BME280;22011;59.912;30.300;2024-01-30T05:51:18;102592.25;;;3.38;74.87
35918;BME280;22011;59.912;30.300;2024-01-30T05:53:46;102602.06;;;3.35;74.62
35918;BME280;22011;59.912;30.300;2024-01-30T05:56:13;102597.59;;;3.37;74.65
35918;BME280;22011;59.912;30.300;2024-01-30T05:58:41;102601.22;;;3.34;74.69
35918;BME280;22011;59.912;30.300;2024-01-30T06:01:10;102597.81;;;3.32;74.66
35918;BME280;22011;59.912;30.300;2024-01-30T06:03:38;102597.81;;;3.32;74.98
35918;BME280;22011;59.912;30.300;2024-01-30T06:06:07;102596.88;;;3.33;74.82
35918;BME280;22011;59.912;30.300;2024-01-30T06:08:34;102597.97;;;3.29;74.90
35918;BME280;22011;59.912;30.300;2024-01-30T06:11:02;102594.25;;;3.33;74.87
35918;BME280;22011;59.912;30.300;2024-01-30T06:13:30;102594.19;;;3.35;74.56
35918;BME280;22011;59.912;30.300;2024-01-30T06:15:59;102595.03;;;3.35;74.77
35918;BME280;22011;59.912;30.300;2024-01-30T06:18:26;102596.97;;;3.32;74.84
35918;BME280;22011;59.912;30.300;2024-01-30T06:20:56;102595.88;;;3.36;75.23
35918;BME280;22011;59.912;30.300;2024-01-30T06:23:25;102582.72;;;3.36;75.16
35918;BME280;22011;59.912;30.300;2024-01-30T06:25:53;102586.13;;;3.38;75.33
35918;BME280;22011;59.912;30.300;2024-01-30T06:28:20;102583.25;;;3.42;75.01
35918;BME280;22011;59.912;30.300;2024-01-30T06:30:48;102592.09;;;3.41;74.71
35918;BME280;22011;59.912;30.300;2024-01-30T06:33:16;102589.31;;;3.44;74.85
35918;BME280;22011;59.912;30.300;2024-01-30T06:35:43;102597.06;;;3.47;74.73
35918;BME280;22011;59.912;30.300;2024-01-30T06:38:12;102595.22;;;3.49;74.42
35918;BME280;22011;59.912;30.300;2024-01-30T06:40:41;102601.25;;;3.51;74.43
35918;BME280;22011;59.912;30.300;2024-01-30T06:43:08;102613.03;;;3.44;74.35
35918;BME280;22011;59.912;30.300;2024-01-30T06:45:37;102627.22;;;3.42;74.55
35918;BME280;22011;59.912;30.300;2024-01-30T06:48:06;102620.16;;;3.42;74.91
35918;BME280;22011;59.912;30.300;2024-01-30T06:50:33;102615.66;;;3.44;74.77
35918;BME280;22011;59.912;30.300;2024-01-30T06:53:01;102616.59;;;3.43;74.58
35918;BME280;22011;59.912;30.300;2024-01-30T06:55:29;102618.44;;;3.41;74.44
35918;BME280;22011;59.912;30.300;2024-01-30T06:57:58;102617.59;;;3.41;74.62
35918;BME280;22011;59.912;30.300;2024-01-30T07:00:25;102625.72;;;3.36;74.89
35918;BME280;22011;59.912;30.300;2024-01-30T07:02:53;102614.41;;;3.34;75.04
35918;BME280;22011;59.912;30.300;2024-01-30T07:05:20;102619.03;;;3.29;74.98
35918;BME280;22011;59.912;30.300;2024-01-30T07:07:49;102611.13;;;3.29;75.20
35918;BME280;22011;59.912;30.300;2024-01-30T07:10:17;102619.75;;;3.33;75.39
35918;BME280;22011;59.912;30.300;2024-01-30T07:12:44;102625.78;;;3.35;74.92
35918;BME280;22011;59.912;30.300;2024-01-30T07:15:14;102641.59;;;3.35;75.04
35918;BME280;22011;59.912;30.300;2024-01-30T07:17:47;102634.78;;;3.31;75.34
35918;BME280;22011;59.912;30.300;2024-01-30T07:20:15;102639.25;;;3.28;75.00
35918;BME280;22011;59.912;30.300;2024-01-30T07:22:43;102632.22;;;3.29;74.93
35918;BME280;22011;59.912;30.300;2024-01-30T07:25:11;102636.41;;;3.33;75.10
35918;BME280;22011;59.912;30.300;2024-01-30T07:27:39;102630.06;;;3.37;75.23
35918;BME280;22011;59.912;30.300;2024-01-30T07:30:07;102631.63;;;3.41;75.27
35918;BME280;22011;59.912;30.300;2024-01-30T07:32:36;102632.03;;;3.51;74.78
35918;BME280;22011;59.912;30.300;2024-01-30T07:35:04;102640.66;;;3.54;74.68
35918;BME280;22011;59.912;30.300;2024-01-30T07:37:32;102649.41;;;3.55;74.42
35918;BME280;22011;59.912;30.300;2024-01-30T07:40:01;102642.28;;;3.57;74.16
35918;BME280;22011;59.912;30.300;2024-01-30T07:42:29;102641.34;;;3.58;74.23
35918;BME280;22011;59.912;30.300;2024-01-30T07:44:56;102630.66;;;3.61;74.36
35918;BME280;22011;59.912;30.300;2024-01-30T07:47:24;102635.88;;;3.63;73.94
35918;BME280;22011;59.912;30.300;2024-01-30T07:49:53;102640.19;;;3.64;73.98
35918;BME280;22011;59.912;30.300;2024-01-30T07:52:20;102629.81;;;3.60;73.70
35918;BME280;22011;59.912;30.300;2024-01-30T07:57:58;102631.44;;;3.63;73.98
35918;BME280;22011;59.912;30.300;2024-01-30T08:00:26;102630.75;;;3.59;73.65
35918;BME280;22011;59.912;30.300;2024-01-30T08:02:55;102625.53;;;3.58;73.67
35918;BME280;22011;59.912;30.300;2024-01-30T08:05:24;102630.75;;;3.59;74.07
35918;BME280;22011;59.912;30.300;2024-01-30T08:07:51;102632.53;;;3.59;74.05
35918;BME280;22011;59.912;30.300;2024-01-30T08:10:20;102635.94;;;3.61;74.02
35918;BME280;22011;59.912;30.300;2024-01-30T08:12:47;102641.22;;;3.61;73.83
35918;BME280;22011;59.912;30.300;2024-01-30T08:15:15;102643.91;;;3.59;73.92
35918;BME280;22011;59.912;30.300;2024-01-30T08:17:43;102643.78;;;3.63;73.99
35918;BME280;22011;59.912;30.300;2024-01-30T08:20:11;102640.44;;;3.59;73.65
35918;BME280;22011;59.912;30.300;2024-01-30T08:22:41;102640.19;;;3.64;74.24
35918;BME280;22011;59.912;30.300;2024-01-30T08:25:09;102650.91;;;3.60;73.72
35918;BME280;22011;59.912;30.300;2024-01-30T08:27:37;102644.78;;;3.60;73.73
35918;BME280;22011;59.912;30.300;2024-01-30T08:30:05;102643.00;;;3.60;73.96
35918;BME280;22011;59.912;30.300;2024-01-30T08:32:33;102648.25;;;3.60;74.01
35918;BME280;22011;59.912;30.300;2024-01-30T08:35:01;102642.06;;;3.61;73.83
35918;BME280;22011;59.912;30.300;2024-01-30T08:37:30;102640.19;;;3.64;73.75
35918;BME280;22011;59.912;30.300;2024-01-30T08:39:59;102637.41;;;3.67;74.08
35918;BME280;22011;59.912;30.300;2024-01-30T08:42:28;102631.50;;;3.61;73.80
35918;BME280;22011;59.912;30.300;2024-01-30T08:44:55;102643.78;;;3.63;73.71
35918;BME280;22011;59.912;30.300;2024-01-30T08:47:23;102643.78;;;3.63;74.09
35918;BME280;22011;59.912;30.300;2024-01-30T08:49:51;102644.63;;;3.63;74.14
35918;BME280;22011;59.912;30.300;2024-01-30T08:52:19;102647.25;;;3.63;73.60
35918;BME280;22011;59.912;30.300;2024-01-30T08:54:46;102642.84;;;3.64;73.95
35918;BME280;22011;59.912;30.300;2024-01-30T08:57:15;102650.44;;;3.70;73.86
35918;BME280;22011;59.912;30.300;2024-01-30T08:59:43;102652.22;;;3.69;73.49
35918;BME280;22011;59.912;30.300;2024-01-30T09:02:13;102649.38;;;3.74;73.61
35918;BME280;22011;59.912;30.300;2024-01-30T09:04:42;102642.66;;;4.03;74.55
35918;BME280;22011;59.912;30.300;2024-01-30T09:07:09;102651.84;;;3.77;73.24
35918;BME280;22011;59.912;30.300;2024-01-30T09:09:37;102642.25;;;3.76;73.19
35918;BME280;22011;59.912;30.300;2024-01-30T09:12:07;102648.22;;;3.79;73.23
35918;BME280;22011;59.912;30.300;2024-01-30T09:14:37;102644.50;;;3.83;73.44
35918;BME280;22011;59.912;30.300;2024-01-30T09:17:05;102643.66;;;3.83;73.00
35918;BME280;22011;59.912;30.300;2024-01-30T09:19:32;102646.13;;;3.86;73.23
35918;BME280;22011;59.912;30.300;2024-01-30T09:22:00;102642.56;;;3.87;73.20
35918;BME280;22011;59.912;30.300;2024-01-30T09:24:28;102647.91;;;3.85;73.10
35918;BME280;22011;59.912;30.300;2024-01-30T09:26:55;102648.91;;;3.83;72.86
35918;BME280;22011;59.912;30.300;2024-01-30T09:29:23;102652.34;;;3.85;72.89
35918;BME280;22011;59.912;30.300;2024-01-30T09:31:52;102669.78;;;3.87;73.14
35918;BME280;22011;59.912;30.300;2024-01-30T09:34:19;102663.81;;;3.84;72.91
35918;BME280;22011;59.912;30.300;2024-01-30T09:36:47;102667.38;;;3.83;72.64
35918;BME280;22011;59.912;30.300;2024-01-30T09:39:14;102669.94;;;3.84;72.87
35918;BME280;22011;59.912;30.300;2024-01-30T09:42:01;102671.59;;;4.04;73.88
35918;BME280;22011;59.912;30.300;2024-01-30T09:44:30;102664.44;;;3.89;72.65
35918;BME280;22011;59.912;30.300;2024-01-30T09:46:59;102668.63;;;3.93;73.10
35918;BME280;22011;59.912;30.300;2024-01-30T09:49:30;102672.19;;;3.92;72.76
35918;BME280;22011;59.912;30.300;2024-01-30T09:51:59;102664.22;;;3.93;72.47
35918;BME280;22011;59.912;30.300;2024-01-30T09:54:28;102669.34;;;3.97;72.11
35918;BME280;22011;59.912;30.300;2024-01-30T09:56:57;102664.28;;;4.26;73.11
35918;BME280;22011;59.912;30.300;2024-01-30T09:59:24;102664.63;;;4.03;71.45
35918;BME280;22011;59.912;30.300;2024-01-30T10:01:52;102658.63;;;4.00;71.51
35918;BME280;22011;59.912;30.300;2024-01-30T10:04:21;102655.06;;;4.01;71.66
35918;BME280;22011;59.912;30.300;2024-01-30T10:06:49;102656.94;;;3.99;71.46
35918;BME280;22011;59.912;30.300;2024-01-30T10:09:18;102662.91;;;4.02;71.56
35918;BME280;22011;59.912;30.300;2024-01-30T10:11:45;102657.63;;;4.02;71.59
35918;BME280;22011;59.912;30.300;2024-01-30T10:14:13;102654.13;;;4.02;71.58
35918;BME280;22011;59.912;30.300;2024-01-30T10:16:41;102662.81;;;4.04;71.93
35918;BME280;22011;59.912;30.300;2024-01-30T10:19:08;102663.59;;;4.06;71.59
35918;BME280;22011;59.912;30.300;2024-01-30T10:21:37;102669.44;;;4.12;71.50
35918;BME280;22011;59.912;30.300;2024-01-30T10:24:06;102661.44;;;4.14;71.25
35918;BME280;22011;59.912;30.300;2024-01-30T10:26:33;102663.31;;;4.12;71.05
35918;BME280;22011;59.912;30.300;2024-01-30T10:29:01;102664.31;;;4.09;70.88
35918;BME280;22011;59.912;30.300;2024-01-30T10:31:28;102664.22;;;4.11;71.28
35918;BME280;22011;59.912;30.300;2024-01-30T10:33:56;102666.88;;;4.11;71.14
35918;BME280;22011;59.912;30.300;2024-01-30T10:36:28;102672.78;;;4.16;71.73
35918;BME280;22011;59.912;30.300;2024-01-30T10:38:59;102677.28;;;4.14;71.69
35918;BME280;22011;59.912;30.300;2024-01-30T10:41:27;102676.66;;;4.09;71.29
35918;BME280;22011;59.912;30.300;2024-01-30T10:44:02;102674.56;;;4.15;71.84
35918;BME280;22011;59.912;30.300;2024-01-30T10:46:32;102670.66;;;4.05;71.46
35918;BME280;22011;59.912;30.300;2024-01-30T10:49:01;102672.59;;;4.02;71.56
35918;BME280;22011;59.912;30.300;2024-01-30T10:51:28;102668.34;;;3.99;72.14
35918;BME280;22011;59.912;30.300;2024-01-30T10:53:58;102669.03;;;4.03;72.24
35918;BME280;22011;59.912;30.300;2024-01-30T10:56:27;102662.75;;;4.05;72.17
35918;BME280;22011;59.912;30.300;2024-01-30T10:58:55;102663.75;;;4.03;71.93
35918;BME280;22011;59.912;30.300;2024-01-30T11:01:23;102671.66;;;4.03;71.72
35918;BME280;22011;59.912;30.300;2024-01-30T11:03:51;102675.00;;;4.06;71.63
35918;BME280;22011;59.912;30.300;2024-01-30T11:06:22;102672.00;;;4.14;71.61
35918;BME280;22011;59.912;30.300;2024-01-30T11:09:01;102672.59;;;4.19;72.30
35918;BME280;22011;59.912;30.300;2024-01-30T11:11:48;102675.91;;;4.22;72.67
35918;BME280;22011;59.912;30.300;2024-01-30T11:14:15;102673.94;;;4.10;71.88
35918;BME280;22011;59.912;30.300;2024-01-30T11:16:43;102683.56;;;4.11;71.56
35918;BME280;22011;59.912;30.300;2024-01-30T11:19:11;102682.84;;;4.08;71.96
35918;BME280;22011;59.912;30.300;2024-01-30T11:21:41;102678.13;;;4.14;71.48
35918;BME280;22011;59.912;30.300;2024-01-30T11:24:14;102686.97;;;4.13;72.08
35918;BME280;22011;59.912;30.300;2024-01-30T11:26:42;102676.03;;;4.04;71.54
35918;BME280;22011;59.912;30.300;2024-01-30T11:29:13;102678.44;;;4.08;72.05
35918;BME280;22011;59.912;30.300;2024-01-30T11:31:51;102677.19;;;4.15;72.39
35918;BME280;22011;59.912;30.300;2024-01-30T11:34:20;102677.81;;;4.03;72.20
35918;BME280;22011;59.912;30.300;2024-01-30T11:36:52;102678.56;;;4.05;72.12
35918;BME280;22011;59.912;30.300;2024-01-30T11:39:26;102678.72;;;4.02;72.46
35918;BME280;22011;59.912;30.300;2024-01-30T11:41:54;102677.94;;;4.00;72.32
35918;BME280;22011;59.912;30.300;2024-01-30T11:44:22;102685.00;;;4.00;72.07
35918;BME280;22011;59.912;30.300;2024-01-30T11:46:52;102680.50;;;4.02;72.18
35918;BME280;22011;59.912;30.300;2024-01-30T11:49:19;102682.31;;;4.01;72.11
35918;BME280;22011;59.912;30.300;2024-01-30T11:51:47;102675.25;;;4.02;72.07
35918;BME280;22011;59.912;30.300;2024-01-30T11:54:16;102676.03;;;4.04;72.69
35918;BME280;22011;59.912;30.300;2024-01-30T11:56:45;102676.03;;;4.04;72.39
35918;BME280;22011;59.912;30.300;2024-01-30T11:59:13;102679.66;;;4.01;72.10
35918;BME280;22011;59.912;30.300;2024-01-30T12:01:41;102670.75;;;4.04;72.21
35918;BME280;22011;59.912;30.300;2024-01-30T12:04:09;102673.31;;;4.05;72.13
35918;BME280;22011;59.912;30.300;2024-01-30T12:06:37;102678.56;;;4.05;71.74
35918;BME280;22011;59.912;30.300;2024-01-30T12:09:04;102671.66;;;4.03;72.08
35918;BME280;22011;59.912;30.300;2024-01-30T12:11:45;102677.28;;;4.14;72.94
35918;BME280;22011;59.912;30.300;2024-01-30T12:14:12;102673.31;;;4.05;71.94
35918;BME280;22011;59.912;30.300;2024-01-30T12:16:40;102676.78;;;4.06;71.83
35918;BME280;22011;59.912;30.300;2024-01-30T12:19:08;102672.75;;;3.99;71.79
35918;BME280;22011;59.912;30.300;2024-01-30T12:21:38;102672.06;;;3.95;72.00
35918;BME280;22011;59.912;30.300;2024-01-30T12:24:06;102666.94;;;3.92;72.18
35918;BME280;22011;59.912;30.300;2024-01-30T12:26:34;102665.28;;;3.89;72.09
35918;BME280;22011;59.912;30.300;2024-01-30T12:29:04;102671.28;;;3.93;72.57
35918;BME280;22011;59.912;30.300;2024-01-30T12:31:32;102667.06;;;3.89;72.06
35918;BME280;22011;59.912;30.300;2024-01-30T12:34:00;102661.81;;;3.89;72.38
35918;BME280;22011;59.912;30.300;2024-01-30T12:36:28;102666.22;;;3.88;72.45
35918;BME280;22011;59.912;30.300;2024-01-30T12:38:57;102668.09;;;3.86;72.73
35918;BME280;22011;59.912;30.300;2024-01-30T12:41:24;102661.03;;;3.87;73.01
35918;BME280;22011;59.912;30.300;2024-01-30T12:43:54;102663.66;;;3.87;72.61
35918;BME280;22011;59.912;30.300;2024-01-30T12:46:27;102662.34;;;3.96;72.79
35918;BME280;22011;59.912;30.300;2024-01-30T12:48:56;102669.78;;;3.87;72.53
35918;BME280;22011;59.912;30.300;2024-01-30T12:51:23;102663.66;;;3.87;72.45
35918;BME280;22011;59.912;30.300;2024-01-30T12:53:51;102669.88;;;3.86;72.90
35918;BME280;22011;59.912;30.300;2024-01-30T12:56:18;102668.16;;;3.85;73.01
35918;BME280;22011;59.912;30.300;2024-01-30T12:58:46;102669.88;;;3.86;72.86